sensor_id;sensor_type;location;lat;lon;timestamp;pressure;altitude;pressure_sealevel;temperature;humidity
74552;BME280;63025;55.472;38.432;2022-12-11T02:04:13;99428.78;;;1.00;90.45
74552;BME280;63025;55.472;38.432;2022-12-11T02:06:42;99423.19;;;1.03;90.72
74552;BME280;63025;55.472;38.432;2022-12-11T02:09:12;99429.94;;;1.06;90.96
74552;BME280;63025;55.472;38.432;2022-12-11T02:12:00;99431.28;;;1.10;91.22
74552;BME280;63025;55.472;38.432;2022-12-11T02:20:33;99436.06;;;1.15;91.29
74552;BME280;63025;55.472;38.432;2022-12-11T02:28:49;99453.28;;;1.19;90.69
74552;BME280;63025;55.472;38.432;2022-12-11T02:31:58;99444.34;;;1.20;90.69
74552;BME280;63025;55.472;38.432;2022-12-11T02:34:40;99447.50;;;1.23;91.32
74552;BME280;63025;55.472;38.432;2022-12-11T02:37:22;99445.84;;;1.22;90.51
74552;BME280;63025;55.472;38.432;2022-12-11T02:39:51;99453.63;;;1.24;90.97
74552;BME280;63025;55.472;38.432;2022-12-11T02:42:19;99448.81;;;1.27;90.56
74552;BME280;63025;55.472;38.432;2022-12-11T02:44:47;99451.47;;;1.27;90.36
74552;BME280;63025;55.472;38.432;2022-12-11T02:47:15;99459.25;;;1.29;90.59
74552;BME280;63025;55.472;38.432;2022-12-11T02:49:44;99469.16;;;1.27;90.05
74552;BME280;63025;55.472;38.432;2022-12-11T02:52:13;99469.31;;;1.25;89.94
74552;BME280;63025;55.472;38.432;2022-12-11T02:54:43;99473.31;;;1.29;90.46
74552;BME280;63025;55.472;38.432;2022-12-11T02:57:20;99470.97;;;1.26;89.48
74552;BME280;63025;55.472;38.432;2022-12-11T02:59:48;99473.00;;;1.24;89.76
74552;BME280;63025;55.472;38.432;2022-12-11T03:02:15;99482.41;;;1.27;89.18
74552;BME280;63025;55.472;38.432;2022-12-11T03:04:42;99469.84;;;1.29;89.76
74552;BME280;63025;55.472;38.432;2022-12-11T03:07:12;99476.63;;;1.31;89.39
74552;BME280;63025;55.472;38.432;2022-12-11T03:09:40;99486.06;;;1.34;89.25
74552;BME280;63025;55.472;38.432;2022-12-11T03:12:11;99492.19;;;1.34;89.14
74552;BME280;63025;55.472;38.432;2022-12-11T03:14:39;99501.13;;;1.33;88.81
74552;BME280;63025;55.472;38.432;2022-12-11T03:17:26;99499.63;;;1.31;88.68
74552;BME280;63025;55.472;38.432;2022-12-11T03:20:04;99508.22;;;1.33;88.76
74552;BME280;63025;55.472;38.432;2022-12-11T03:22:56;99504.09;;;1.30;89.25
74552;BME280;63025;55.472;38.432;2022-12-11T03:25:53;99508.22;;;1.33;88.26
74552;BME280;63025;55.472;38.432;2022-12-11T03:28:38;99500.13;;;1.34;88.89
74552;BME280;63025;55.472;38.432;2022-12-11T03:31:11;99509.06;;;1.33;88.72
74552;BME280;63025;55.472;38.432;2022-12-11T03:33:41;99513.53;;;1.33;88.80
74552;BME280;63025;55.472;38.432;2022-12-11T03:36:23;99521.28;;;1.26;88.16
74552;BME280;63025;55.472;38.432;2022-12-11T03:38:56;99514.00;;;1.28;89.05
74552;BME280;63025;55.472;38.432;2022-12-11T03:41:25;99509.38;;;1.30;88.14
74552;BME280;63025;55.472;38.432;2022-12-11T03:43:53;99508.22;;;1.33;88.19
74552;BME280;63025;55.472;38.432;2022-12-11T03:46:23;99517.66;;;1.35;88.08
74552;BME280;63025;55.472;38.432;2022-12-11T03:48:53;99519.31;;;1.36;88.21
74552;BME280;63025;55.472;38.432;2022-12-11T03:51:21;99521.94;;;1.36;88.36
74552;BME280;63025;55.472;38.432;2022-12-11T03:53:49;99525.59;;;1.35;88.42
74552;BME280;63025;55.472;38.432;2022-12-11T03:56:17;99519.31;;;1.36;87.64
74552;BME280;63025;55.472;38.432;2022-12-11T03:58:45;99505.06;;;1.37;88.37
74552;BME280;63025;55.472;38.432;2022-12-11T04:01:10;99519.97;;;1.38;88.25
74552;BME280;63025;55.472;38.432;2022-12-11T04:03:37;99528.22;;;1.35;87.74
74552;BME280;63025;55.472;38.432;2022-12-11T04:06:03;99516.84;;;1.35;87.66
74552;BME280;63025;55.472;38.432;2022-12-11T04:08:29;99524.13;;;1.33;87.01
74552;BME280;63025;55.472;38.432;2022-12-11T04:10:55;99529.88;;;1.36;88.35
74552;BME280;63025;55.472;38.432;2022-12-11T04:13:40;99519.31;;;1.36;87.93
74552;BME280;63025;55.472;38.432;2022-12-11T04:16:07;99529.88;;;1.36;88.22
74552;BME280;63025;55.472;38.432;2022-12-11T04:18:33;99537.66;;;1.38;87.47
74552;BME280;63025;55.472;38.432;2022-12-11T04:21:17;99536.84;;;1.37;87.87
74552;BME280;63025;55.472;38.432;2022-12-11T04:24:02;99542.13;;;1.37;88.04
74552;BME280;63025;55.472;38.432;2022-12-11T04:26:41;99547.28;;;1.39;87.34
74552;BME280;63025;55.472;38.432;2022-12-11T04:29:07;99549.09;;;1.38;88.23
74552;BME280;63025;55.472;38.432;2022-12-11T04:31:33;99557.03;;;1.38;87.77
74552;BME280;63025;55.472;38.432;2022-12-11T04:33:59;99547.44;;;1.37;87.64
74552;BME280;63025;55.472;38.432;2022-12-11T04:36:25;99568.59;;;1.37;86.86
74552;BME280;63025;55.472;38.432;2022-12-11T04:38:50;99563.31;;;1.37;87.08
74552;BME280;63025;55.472;38.432;2022-12-11T04:41:16;99566.63;;;1.39;86.59
74552;BME280;63025;55.472;38.432;2022-12-11T04:43:43;99561.66;;;1.36;87.13
74552;BME280;63025;55.472;38.432;2022-12-11T04:48:37;99568.59;;;1.37;87.47
74552;BME280;63025;55.472;38.432;2022-12-11T04:51:03;99578.38;;;1.37;87.20
74552;BME280;63025;55.472;38.432;2022-12-11T04:53:29;99562.84;;;1.34;87.63
74552;BME280;63025;55.472;38.432;2022-12-11T04:55:55;99564.66;;;1.33;86.71
74552;BME280;63025;55.472;38.432;2022-12-11T04:58:22;99574.25;;;1.34;86.86
74552;BME280;63025;55.472;38.432;2022-12-11T05:00:48;99572.44;;;1.35;86.51
74552;BME280;63025;55.472;38.432;2022-12-11T05:03:15;99575.25;;;1.33;87.46
74552;BME280;63025;55.472;38.432;2022-12-11T05:05:49;99582.81;;;1.28;86.67
74552;BME280;63025;55.472;38.432;2022-12-11T05:08:17;99571.25;;;1.29;86.97
74552;BME280;63025;55.472;38.432;2022-12-11T05:10:43;99584.31;;;1.31;86.80
74552;BME280;63025;55.472;38.432;2022-12-11T05:13:09;99579.53;;;1.34;86.98
74552;BME280;63025;55.472;38.432;2022-12-11T05:15:38;99585.66;;;1.35;87.27
74552;BME280;63025;55.472;38.432;2022-12-11T05:18:04;99582.00;;;1.36;87.04
74552;BME280;63025;55.472;38.432;2022-12-11T05:20:30;99582.00;;;1.36;86.89
74552;BME280;63025;55.472;38.432;2022-12-11T05:22:56;99579.72;;;1.33;87.28
74552;BME280;63025;55.472;38.432;2022-12-11T05:25:22;99579.19;;;1.37;86.32
74552;BME280;63025;55.472;38.432;2022-12-11T05:27:48;99583.66;;;1.37;87.63
74552;BME280;63025;55.472;38.432;2022-12-11T05:30:13;99585.31;;;1.38;87.38
74552;BME280;63025;55.472;38.432;2022-12-11T05:32:39;99584.50;;;1.37;86.25
74552;BME280;63025;55.472;38.432;2022-12-11T05:35:05;99594.09;;;1.38;86.98
74552;BME280;63025;55.472;38.432;2022-12-11T05:37:32;99586.16;;;1.38;86.98
74552;BME280;63025;55.472;38.432;2022-12-11T05:39:59;99599.22;;;1.40;87.38
74552;BME280;63025;55.472;38.432;2022-12-11T05:42:24;99602.88;;;1.39;87.06
74552;BME280;63025;55.472;38.432;2022-12-11T05:44:51;99597.72;;;1.37;86.51
74552;BME280;63025;55.472;38.432;2022-12-11T05:47:16;99617.94;;;1.38;86.44
74552;BME280;63025;55.472;38.432;2022-12-11T05:49:45;99616.41;;;1.36;87.22
74552;BME280;63025;55.472;38.432;2022-12-11T05:52:12;99615.59;;;1.35;86.89
74552;BME280;63025;55.472;38.432;2022-12-11T05:54:38;99627.84;;;1.36;86.54
74552;BME280;63025;55.472;38.432;2022-12-11T05:57:04;99626.03;;;1.37;86.75
74552;BME280;63025;55.472;38.432;2022-12-11T05:59:29;99632.16;;;1.37;87.05
74552;BME280;63025;55.472;38.432;2022-12-11T06:01:55;99643.41;;;1.39;87.05
74552;BME280;63025;55.472;38.432;2022-12-11T06:04:21;99644.56;;;1.37;86.64
74552;BME280;63025;55.472;38.432;2022-12-11T06:06:47;99648.03;;;1.37;86.91
74552;BME280;63025;55.472;38.432;2022-12-11T06:09:14;99653.84;;;1.41;86.64
74552;BME280;63025;55.472;38.432;2022-12-11T06:11:40;99657.31;;;1.41;86.92
74552;BME280;63025;55.472;38.432;2022-12-11T06:14:06;99661.28;;;1.45;86.78
74552;BME280;63025;55.472;38.432;2022-12-11T06:16:31;99666.59;;;1.45;86.33
74552;BME280;63025;55.472;38.432;2022-12-11T06:18:57;99671.56;;;1.48;87.62
74552;BME280;63025;55.472;38.432;2022-12-11T06:21:26;99672.56;;;1.47;86.86
74552;BME280;63025;55.472;38.432;2022-12-11T06:23:53;99666.25;;;1.40;87.62
74552;BME280;63025;55.472;38.432;2022-12-11T06:26:20;99687.47;;;1.48;86.70
74552;BME280;63025;55.472;38.432;2022-12-11T06:28:47;99697.75;;;1.52;86.77
74552;BME280;63025;55.472;38.432;2022-12-11T06:31:13;99703.03;;;1.52;87.11
74552;BME280;63025;55.472;38.432;2022-12-11T06:33:39;99705.69;;;1.52;86.94
74552;BME280;63025;55.472;38.432;2022-12-11T06:36:11;99706.34;;;1.54;87.05
74552;BME280;63025;55.472;38.432;2022-12-11T06:38:37;99702.72;;;1.55;87.04
74552;BME280;63025;55.472;38.432;2022-12-11T06:41:04;99699.72;;;1.58;86.87
74552;BME280;63025;55.472;38.432;2022-12-11T06:43:35;99706.84;;;1.57;87.20
74552;BME280;63025;55.472;38.432;2022-12-11T06:46:06;99718.78;;;1.61;86.53
74552;BME280;63025;55.472;38.432;2022-12-11T06:48:32;99719.47;;;1.63;87.10
74552;BME280;63025;55.472;38.432;2022-12-11T06:50:58;99719.13;;;1.66;87.37
74552;BME280;63025;55.472;38.432;2022-12-11T06:53:24;99718.97;;;1.68;86.63
74552;BME280;63025;55.472;38.432;2022-12-11T06:55:50;99720.47;;;1.70;86.94
74552;BME280;63025;55.472;38.432;2022-12-11T06:58:16;99713.66;;;1.68;86.27
74552;BME280;63025;55.472;38.432;2022-12-11T07:00:41;99720.63;;;1.69;86.72
74552;BME280;63025;55.472;38.432;2022-12-11T07:03:08;99719.50;;;1.71;87.03
74552;BME280;63025;55.472;38.432;2022-12-11T07:05:34;99725.78;;;1.70;85.76
74552;BME280;63025;55.472;38.432;2022-12-11T07:08:00;99718.34;;;1.74;86.67
74552;BME280;63025;55.472;38.432;2022-12-11T07:10:26;99716.38;;;1.76;86.90
74552;BME280;63025;55.472;38.432;2022-12-11T07:12:52;99732.06;;;1.77;86.43
74552;BME280;63025;55.472;38.432;2022-12-11T07:15:19;99714.72;;;1.75;86.25
74552;BME280;63025;55.472;38.432;2022-12-11T07:17:44;99716.38;;;1.76;86.39
74552;BME280;63025;55.472;38.432;2022-12-11T07:20:10;99713.22;;;1.80;86.42
74552;BME280;63025;55.472;38.432;2022-12-11T07:22:36;99707.44;;;1.85;86.39
74552;BME280;63025;55.472;38.432;2022-12-11T07:25:02;99733.94;;;1.85;86.18
74552;BME280;63025;55.472;38.432;2022-12-11T07:27:29;99736.91;;;1.82;86.19
74552;BME280;63025;55.472;38.432;2022-12-11T07:29:55;99735.91;;;1.83;85.97
74552;BME280;63025;55.472;38.432;2022-12-11T07:32:21;99729.28;;;1.87;85.87
74552;BME280;63025;55.472;38.432;2022-12-11T07:34:47;99731.94;;;1.87;86.39
74552;BME280;63025;55.472;38.432;2022-12-11T07:37:13;99754.31;;;1.84;86.50
74552;BME280;63025;55.472;38.432;2022-12-11T07:39:39;99754.97;;;1.87;85.85
74552;BME280;63025;55.472;38.432;2022-12-11T07:42:05;99761.09;;;1.87;86.04
74552;BME280;63025;55.472;38.432;2022-12-11T07:44:30;99759.63;;;1.93;85.70
74552;BME280;63025;55.472;38.432;2022-12-11T07:46:56;99765.44;;;1.96;85.73
74552;BME280;63025;55.472;38.432;2022-12-11T07:49:22;99757.00;;;2.01;85.85
74552;BME280;63025;55.472;38.432;2022-12-11T07:51:48;99757.81;;;2.01;85.83
74552;BME280;63025;55.472;38.432;2022-12-11T07:54:15;99757.19;;;2.07;85.09
74552;BME280;63025;55.472;38.432;2022-12-11T07:56:42;99760.00;;;2.06;85.36
74552;BME280;63025;55.472;38.432;2022-12-11T07:59:08;99757.50;;;2.04;85.20
74552;BME280;63025;55.472;38.432;2022-12-11T08:01:35;99766.13;;;2.06;85.53
74552;BME280;63025;55.472;38.432;2022-12-11T08:04:03;99767.28;;;2.12;84.77
74552;BME280;63025;55.472;38.432;2022-12-11T08:06:32;99774.78;;;2.16;85.21
74552;BME280;63025;55.472;38.432;2022-12-11T08:09:00;99759.50;;;2.18;84.98
74552;BME280;63025;55.472;38.432;2022-12-11T08:11:26;99758.38;;;2.21;84.21
74552;BME280;63025;55.472;38.432;2022-12-11T08:13:53;99757.22;;;2.24;84.45
74552;BME280;63025;55.472;38.432;2022-12-11T08:16:19;99762.53;;;2.24;84.51
74552;BME280;63025;55.472;38.432;2022-12-11T08:18:46;99760.53;;;2.26;84.16
74552;BME280;63025;55.472;38.432;2022-12-11T08:21:21;99762.19;;;2.27;83.91
74552;BME280;63025;55.472;38.432;2022-12-11T08:23:48;99767.16;;;2.30;83.43
74552;BME280;63025;55.472;38.432;2022-12-11T08:26:17;99776.09;;;2.29;83.82
74552;BME280;63025;55.472;38.432;2022-12-11T08:28:44;99777.44;;;2.33;83.17
74552;BME280;63025;55.472;38.432;2022-12-11T08:31:11;99771.81;;;2.36;83.09
74552;BME280;63025;55.472;38.432;2022-12-11T08:33:38;99785.41;;;2.41;82.83
74552;BME280;63025;55.472;38.432;2022-12-11T08:36:06;99776.81;;;2.47;83.09
74552;BME280;63025;55.472;38.432;2022-12-11T08:38:33;99784.78;;;2.47;83.40
74552;BME280;63025;55.472;38.432;2022-12-11T08:41:16;99769.34;;;2.50;82.81
74552;BME280;63025;55.472;38.432;2022-12-11T08:43:43;99769.03;;;2.53;82.52
74552;BME280;63025;55.472;38.432;2022-12-11T08:46:10;99759.41;;;2.61;82.22
74552;BME280;63025;55.472;38.432;2022-12-11T08:48:37;99765.53;;;2.61;82.14
74552;BME280;63025;55.472;38.432;2022-12-11T08:51:07;99775.16;;;2.62;82.43
74552;BME280;63025;55.472;38.432;2022-12-11T08:53:33;99765.53;;;2.61;81.83
74552;BME280;63025;55.472;38.432;2022-12-11T08:56:09;99779.78;;;2.60;82.44
74552;BME280;63025;55.472;38.432;2022-12-11T08:58:36;99789.25;;;2.63;82.59
74552;BME280;63025;55.472;38.432;2022-12-11T09:01:07;99789.25;;;2.63;82.38
74552;BME280;63025;55.472;38.432;2022-12-11T09:03:34;99808.81;;;2.62;82.37
74552;BME280;63025;55.472;38.432;2022-12-11T09:06:03;99808.50;;;2.56;81.60
74552;BME280;63025;55.472;38.432;2022-12-11T09:08:29;99820.72;;;2.49;82.40
74552;BME280;63025;55.472;38.432;2022-12-11T09:10:55;99816.59;;;2.47;82.54
74552;BME280;63025;55.472;38.432;2022-12-11T09:13:21;99824.41;;;2.48;81.92
74552;BME280;63025;55.472;38.432;2022-12-11T09:15:47;99824.56;;;2.47;82.11
74552;BME280;63025;55.472;38.432;2022-12-11T09:18:12;99833.31;;;2.39;82.15
74552;BME280;63025;55.472;38.432;2022-12-11T09:20:38;99838.28;;;2.34;82.39
74552;BME280;63025;55.472;38.432;2022-12-11T09:23:04;99848.53;;;2.29;82.27
74552;BME280;63025;55.472;38.432;2022-12-11T09:25:30;99856.47;;;2.29;82.15
74552;BME280;63025;55.472;38.432;2022-12-11T09:27:56;99848.38;;;2.31;82.19
74552;BME280;63025;55.472;38.432;2022-12-11T09:30:22;99848.88;;;2.34;82.88
74552;BME280;63025;55.472;38.432;2022-12-11T09:32:48;99855.34;;;2.32;82.26
74552;BME280;63025;55.472;38.432;2022-12-11T09:35:14;99861.63;;;2.31;82.40
74552;BME280;63025;55.472;38.432;2022-12-11T09:37:39;99859.31;;;2.28;82.80
74552;BME280;63025;55.472;38.432;2022-12-11T09:40:06;99861.13;;;2.27;82.93
74552;BME280;63025;55.472;38.432;2022-12-11T09:43:05;99874.19;;;2.29;82.77
74552;BME280;63025;55.472;38.432;2022-12-11T09:45:33;99871.56;;;2.29;83.01
74552;BME280;63025;55.472;38.432;2022-12-11T09:48:00;99871.56;;;2.29;82.64
74552;BME280;63025;55.472;38.432;2022-12-11T09:50:30;99857.31;;;2.30;83.04
74552;BME280;63025;55.472;38.432;2022-12-11T09:53:11;99854.00;;;2.28;82.58
74552;BME280;63025;55.472;38.432;2022-12-11T10:06:49;99834.41;;;2.20;82.58
74552;BME280;63025;55.472;38.432;2022-12-11T10:12:14;99851.16;;;2.21;82.97
74552;BME280;63025;55.472;38.432;2022-12-11T10:17:29;99867.22;;;2.19;82.35
74552;BME280;63025;55.472;38.432;2022-12-11T10:19:57;99864.06;;;2.16;82.61
74552;BME280;63025;55.472;38.432;2022-12-11T10:22:27;99858.63;;;2.17;83.20
74552;BME280;63025;55.472;38.432;2022-12-11T10:27:30;99849.34;;;2.21;83.29
74552;BME280;63025;55.472;38.432;2022-12-11T10:31:00;99856.78;;;2.18;82.99
74552;BME280;63025;55.472;38.432;2022-12-11T10:33:20;99866.06;;;2.14;83.08
74552;BME280;63025;55.472;38.432;2022-12-11T10:35:52;99861.56;;;2.14;82.89
74552;BME280;63025;55.472;38.432;2022-12-11T10:38:30;99870.50;;;2.05;83.13
74552;BME280;63025;55.472;38.432;2022-12-11T10:41:02;99869.66;;;2.05;83.28
74552;BME280;63025;55.472;38.432;2022-12-11T10:43:43;99849.75;;;2.01;82.95
74552;BME280;63025;55.472;38.432;2022-12-11T10:46:25;99852.94;;;2.04;83.57
74552;BME280;63025;55.472;38.432;2022-12-11T10:51:21;99862.84;;;2.02;83.54
74552;BME280;63025;55.472;38.432;2022-12-11T10:53:52;99859.53;;;2.00;83.61
74552;BME280;63025;55.472;38.432;2022-12-11T10:56:31;99866.16;;;1.96;83.67
74552;BME280;63025;55.472;38.432;2022-12-11T10:58:58;99868.13;;;1.94;83.35
74552;BME280;63025;55.472;38.432;2022-12-11T11:01:27;99852.22;;;1.94;83.48
74552;BME280;63025;55.472;38.432;2022-12-11T11:04:01;99855.84;;;1.93;83.48
74552;BME280;63025;55.472;38.432;2022-12-11T11:06:27;99853.88;;;1.95;83.53
74552;BME280;63025;55.472;38.432;2022-12-11T11:08:56;99854.72;;;1.96;83.87
74552;BME280;63025;55.472;38.432;2022-12-11T11:11:34;99846.91;;;1.94;83.49
74552;BME280;63025;55.472;38.432;2022-12-11T11:16:35;99851.50;;;1.84;84.01
74552;BME280;63025;55.472;38.432;2022-12-11T11:19:02;99849.34;;;1.88;84.33
74552;BME280;63025;55.472;38.432;2022-12-11T11:21:28;99855.16;;;1.83;83.77
74552;BME280;63025;55.472;38.432;2022-12-11T11:23:54;99842.88;;;1.82;84.18
74552;BME280;63025;55.472;38.432;2022-12-11T11:26:21;99843.56;;;1.84;84.14
74552;BME280;63025;55.472;38.432;2022-12-11T11:28:51;99850.38;;;1.87;84.39
74552;BME280;63025;55.472;38.432;2022-12-11T11:31:18;99856.66;;;1.86;84.41
74552;BME280;63025;55.472;38.432;2022-12-11T11:34:03;99855.16;;;1.83;84.39
74552;BME280;63025;55.472;38.432;2022-12-11T11:36:32;99847.50;;;1.80;84.30
74552;BME280;63025;55.472;38.432;2022-12-11T11:41:57;99845.81;;;1.71;84.03
74552;BME280;63025;55.472;38.432;2022-12-11T11:45:13;99845.81;;;1.71;84.43
74552;BME280;63025;55.472;38.432;2022-12-11T11:47:59;99840.16;;;1.66;84.11
74552;BME280;63025;55.472;38.432;2022-12-11T11:50:32;99835.84;;;1.65;83.74
74552;BME280;63025;55.472;38.432;2022-12-11T11:53:08;99836.16;;;1.62;84.20
74552;BME280;63025;55.472;38.432;2022-12-11T11:58:21;99852.19;;;1.60;84.73
74552;BME280;63025;55.472;38.432;2022-12-11T12:00:52;99864.63;;;1.60;84.72
74552;BME280;63025;55.472;38.432;2022-12-11T12:03:18;99859.47;;;1.58;84.38
74552;BME280;63025;55.472;38.432;2022-12-11T12:09:15;99862.44;;;1.55;84.83
74552;BME280;63025;55.472;38.432;2022-12-11T12:14:43;99878.34;;;1.55;84.73
74552;BME280;63025;55.472;38.432;2022-12-11T12:17:52;99884.47;;;1.56;85.03
74552;BME280;63025;55.472;38.432;2022-12-11T12:23:45;99883.94;;;1.52;84.63
74552;BME280;63025;55.472;38.432;2022-12-11T12:26:34;99879.91;;;1.48;85.30
74552;BME280;63025;55.472;38.432;2022-12-11T12:40:23;99857.34;;;1.36;84.99
74552;BME280;63025;55.472;38.432;2022-12-11T12:48:08;99851.53;;;1.32;85.09
74552;BME280;63025;55.472;38.432;2022-12-11T12:50:45;99848.22;;;1.30;85.97
74552;BME280;63025;55.472;38.432;2022-12-11T12:53:18;99845.41;;;1.32;84.86
74552;BME280;63025;55.472;38.432;2022-12-11T12:55:47;99850.69;;;1.32;85.57
74552;BME280;63025;55.472;38.432;2022-12-11T13:04:04;99861.25;;;1.24;85.50
74552;BME280;63025;55.472;38.432;2022-12-11T13:06:44;99847.47;;;1.20;86.12
74552;BME280;63025;55.472;38.432;2022-12-11T13:09:21;99844.00;;;1.20;85.45
74552;BME280;63025;55.472;38.432;2022-12-11T13:11:50;99854.44;;;1.21;85.89
74552;BME280;63025;55.472;38.432;2022-12-11T13:16:51;99872.97;;;1.21;85.83
74552;BME280;63025;55.472;38.432;2022-12-11T13:19:29;99877.97;;;1.24;86.21
74552;BME280;63025;55.472;38.432;2022-12-11T13:24:29;99862.72;;;1.26;86.22
74552;BME280;63025;55.472;38.432;2022-12-11T13:26:56;99857.44;;;1.26;86.51
74552;BME280;63025;55.472;38.432;2022-12-11T13:34:44;99857.06;;;1.21;86.64
74552;BME280;63025;55.472;38.432;2022-12-11T13:39:50;99847.19;;;1.23;86.65
74552;BME280;63025;55.472;38.432;2022-12-11T13:42:26;99841.53;;;1.26;86.09
74552;BME280;63025;55.472;38.432;2022-12-11T13:44:53;99823.16;;;1.25;86.13
74552;BME280;63025;55.472;38.432;2022-12-11T13:47:20;99829.28;;;1.25;86.32
74552;BME280;63025;55.472;38.432;2022-12-11T13:49:49;99831.94;;;1.25;86.49
74552;BME280;63025;55.472;38.432;2022-12-11T13:52:23;99816.41;;;1.22;86.34
74552;BME280;63025;55.472;38.432;2022-12-11T13:54:54;99815.41;;;1.23;85.91
74552;BME280;63025;55.472;38.432;2022-12-11T13:57:25;99811.09;;;1.22;85.61
74552;BME280;63025;55.472;38.432;2022-12-11T13:59:54;99817.38;;;1.21;86.30
74552;BME280;63025;55.472;38.432;2022-12-11T14:02:33;99822.53;;;1.23;85.78
74552;BME280;63025;55.472;38.432;2022-12-11T14:05:02;99813.75;;;1.22;86.34
74552;BME280;63025;55.472;38.432;2022-12-11T14:07:36;99809.44;;;1.21;85.78
74552;BME280;63025;55.472;38.432;2022-12-11T14:10:13;99810.72;;;1.17;86.23
74552;BME280;63025;55.472;38.432;2022-12-11T14:15:43;99816.41;;;1.22;86.30
74552;BME280;63025;55.472;38.432;2022-12-11T14:18:20;99815.88;;;1.19;87.06
74552;BME280;63025;55.472;38.432;2022-12-11T14:20:53;99820.16;;;1.20;86.69
74552;BME280;63025;55.472;38.432;2022-12-11T14:23:23;99819.03;;;1.22;86.23
74552;BME280;63025;55.472;38.432;2022-12-11T14:25:53;99832.28;;;1.22;86.77
74552;BME280;63025;55.472;38.432;2022-12-11T14:28:19;99823.34;;;1.23;87.19
74552;BME280;63025;55.472;38.432;2022-12-11T14:30:49;99817.22;;;1.23;87.08
74552;BME280;63025;55.472;38.432;2022-12-11T14:33:18;99820.53;;;1.25;86.48
74552;BME280;63025;55.472;38.432;2022-12-11T14:35:46;99822.38;;;1.24;86.98
74552;BME280;63025;55.472;38.432;2022-12-11T14:38:20;99816.41;;;1.22;86.50
74552;BME280;63025;55.472;38.432;2022-12-11T14:40:52;99819.88;;;1.23;86.25
74552;BME280;63025;55.472;38.432;2022-12-11T14:43:34;99811.78;;;1.24;86.92
74552;BME280;63025;55.472;38.432;2022-12-11T14:46:07;99819.72;;;1.24;86.32
74552;BME280;63025;55.472;38.432;2022-12-11T14:48:41;99814.34;;;1.16;86.44
74552;BME280;63025;55.472;38.432;2022-12-11T14:51:15;99820.03;;;1.21;86.99
74552;BME280;63025;55.472;38.432;2022-12-11T14:53:46;99818.06;;;1.23;86.38
74552;BME280;63025;55.472;38.432;2022-12-11T14:56:19;99805.81;;;1.22;86.90
74552;BME280;63025;55.472;38.432;2022-12-11T14:58:57;99792.56;;;1.22;86.45
74552;BME280;63025;55.472;38.432;2022-12-11T15:01:30;99786.13;;;1.25;87.13
74552;BME280;63025;55.472;38.432;2022-12-11T15:04:18;99774.72;;;1.24;86.96
74552;BME280;63025;55.472;38.432;2022-12-11T15:06:49;99763.31;;;1.24;87.06
74552;BME280;63025;55.472;38.432;2022-12-11T15:09:25;99749.41;;;1.22;86.39
74552;BME280;63025;55.472;38.432;2022-12-11T15:11:52;99743.56;;;1.18;87.18
74552;BME280;63025;55.472;38.432;2022-12-11T15:14:20;99738.97;;;1.20;86.66
74552;BME280;63025;55.472;38.432;2022-12-11T15:16:47;99738.97;;;1.20;87.19
74552;BME280;63025;55.472;38.432;2022-12-11T15:19:23;99729.34;;;1.19;86.78
74552;BME280;63025;55.472;38.432;2022-12-11T15:21:52;99734.66;;;1.19;86.95
74552;BME280;63025;55.472;38.432;2022-12-11T15:24:43;99727.69;;;1.18;86.96
74552;BME280;63025;55.472;38.432;2022-12-11T15:29:49;99737.13;;;1.21;87.40
74552;BME280;63025;55.472;38.432;2022-12-11T15:32:17;99733.50;;;1.22;87.50
74552;BME280;63025;55.472;38.432;2022-12-11T15:37:36;99748.41;;;1.23;87.02
74552;BME280;63025;55.472;38.432;2022-12-11T15:40:04;99745.59;;;1.24;87.44
74552;BME280;63025;55.472;38.432;2022-12-11T15:42:31;99740.13;;;1.26;87.69
74552;BME280;63025;55.472;38.432;2022-12-11T15:44:58;99733.03;;;1.26;86.91
74552;BME280;63025;55.472;38.432;2022-12-11T15:47:27;99734.69;;;1.27;87.55
74552;BME280;63025;55.472;38.432;2022-12-11T15:49:57;99717.00;;;1.28;87.00
74552;BME280;63025;55.472;38.432;2022-12-11T15:52:23;99719.78;;;1.26;87.89
74552;BME280;63025;55.472;38.432;2022-12-11T15:54:50;99709.34;;;1.25;87.32
74552;BME280;63025;55.472;38.432;2022-12-11T15:57:20;99717.81;;;1.28;87.58
74552;BME280;63025;55.472;38.432;2022-12-11T15:59:48;99724.47;;;1.32;86.78
74552;BME280;63025;55.472;38.432;2022-12-11T16:02:15;99717.50;;;1.31;87.30
74552;BME280;63025;55.472;38.432;2022-12-11T16:04:41;99698.00;;;1.32;87.47
74552;BME280;63025;55.472;38.432;2022-12-11T16:07:33;99701.31;;;1.34;86.78
74552;BME280;63025;55.472;38.432;2022-12-11T16:09:59;99697.84;;;1.34;87.78
74552;BME280;63025;55.472;38.432;2022-12-11T16:12:25;99702.47;;;1.32;87.17
74552;BME280;63025;55.472;38.432;2022-12-11T16:14:51;99694.66;;;1.30;87.01
74552;BME280;63025;55.472;38.432;2022-12-11T16:17:17;99675.16;;;1.31;87.28
74552;BME280;63025;55.472;38.432;2022-12-11T16:19:43;99662.91;;;1.30;86.91
74552;BME280;63025;55.472;38.432;2022-12-11T16:22:11;99657.47;;;1.32;86.47
74552;BME280;63025;55.472;38.432;2022-12-11T16:24:38;99674.31;;;1.31;86.92
74552;BME280;63025;55.472;38.432;2022-12-11T16:27:04;99678.78;;;1.30;87.18
74552;BME280;63025;55.472;38.432;2022-12-11T16:29:34;99688.38;;;1.31;86.50
74552;BME280;63025;55.472;38.432;2022-12-11T16:32:00;99683.78;;;1.33;86.68
74552;BME280;63025;55.472;38.432;2022-12-11T16:34:27;99682.13;;;1.32;86.92
74552;BME280;63025;55.472;38.432;2022-12-11T16:36:53;99699.81;;;1.32;87.08
74552;BME280;63025;55.472;38.432;2022-12-11T16:39:21;99685.44;;;1.34;87.50
74552;BME280;63025;55.472;38.432;2022-12-11T16:41:47;99687.06;;;1.35;87.03
74552;BME280;63025;55.472;38.432;2022-12-11T16:44:15;99681.97;;;1.34;87.14
74552;BME280;63025;55.472;38.432;2022-12-11T16:46:43;99670.38;;;1.35;87.46
74552;BME280;63025;55.472;38.432;2022-12-11T16:49:09;99660.59;;;1.35;87.43
74552;BME280;63025;55.472;38.432;2022-12-11T16:51:35;99650.00;;;1.35;86.82
74552;BME280;63025;55.472;38.432;2022-12-11T16:54:01;99654.66;;;1.33;87.09
74552;BME280;63025;55.472;38.432;2022-12-11T16:56:27;99640.75;;;1.31;87.55